sensor_id;sensor_type;location;lat;lon;timestamp;temperature;humidity
7738;DHT22;29398;45.328;5.558;2022-11-11T00:00:49;10.30;99.90
7738;DHT22;29398;45.328;5.558;2022-11-11T00:02:09;10.00;99.90
7738;DHT22;29398;45.328;5.558;2022-11-11T00:03:29;10.30;99.90
7738;DHT22;29398;45.328;5.558;2022-11-11T00:04:49;10.30;99.90
7738;DHT22;29398;45.328;5.558;2022-11-11T00:06:12;10.30;99.90
7738;DHT22;29398;45.328;5.558;2022-11-11T00:07:32;10.30;99.90
7738;DHT22;29398;45.328;5.558;2022-11-11T00:10:14;10.20;99.90
7738;DHT22;29398;45.328;5.558;2022-11-11T00:11:36;10.20;99.90
7738;DHT22;29398;45.328;5.558;2022-11-11T00:12:59;10.20;99.90
7738;DHT22;29398;45.328;5.558;2022-11-11T00:14:19;10.20;99.90
7738;DHT22;29398;45.328;5.558;2022-11-11T00:15:39;10.10;99.90
7738;DHT22;29398;45.328;5.558;2022-11-11T00:16:59;10.10;99.90
7738;DHT22;29398;45.328;5.558;2022-11-11T00:18:38;10.10;99.90
7738;DHT22;29398;45.328;5.558;2022-11-11T00:20:16;10.10;99.90
7738;DHT22;29398;45.328;5.558;2022-11-11T00:21:55;10.10;99.90
7738;DHT22;29398;45.328;5.558;2022-11-11T00:23:35;10.10;99.90
7738;DHT22;29398;45.328;5.558;2022-11-11T00:25:16;10.00;99.90
7738;DHT22;29398;45.328;5.558;2022-11-11T00:26:37;9.90;99.90
7738;DHT22;29398;45.328;5.558;2022-11-11T00:27:56;9.80;99.90
7738;DHT22;29398;45.328;5.558;2022-11-11T00:29:17;9.80;99.90
7738;DHT22;29398;45.328;5.558;2022-11-11T00:30:39;9.80;99.90
7738;DHT22;29398;45.328;5.558;2022-11-11T00:32:00;9.80;99.90
7738;DHT22;29398;45.328;5.558;2022-11-11T00:33:39;9.80;99.90
7738;DHT22;29398;45.328;5.558;2022-11-11T00:34:59;9.60;99.90
7738;DHT22;29398;45.328;5.558;2022-11-11T00:36:42;9.60;99.90
7738;DHT22;29398;45.328;5.558;2022-11-11T00:38:06;9.60;99.90
7738;DHT22;29398;45.328;5.558;2022-11-11T00:39:27;9.60;99.90
7738;DHT22;29398;45.328;5.558;2022-11-11T00:40:47;9.50;99.90
7738;DHT22;29398;45.328;5.558;2022-11-11T00:42:07;9.50;99.90
7738;DHT22;29398;45.328;5.558;2022-11-11T00:43:28;9.60;99.90
7738;DHT22;29398;45.328;5.558;2022-11-11T00:44:49;9.60;99.90
7738;DHT22;29398;45.328;5.558;2022-11-11T00:46:11;9.60;99.90
7738;DHT22;29398;45.328;5.558;2022-11-11T00:47:49;9.60;99.90
7738;DHT22;29398;45.328;5.558;2022-11-11T00:49:28;9.60;99.90
7738;DHT22;29398;45.328;5.558;2022-11-11T00:51:06;9.60;99.90
7738;DHT22;29398;45.328;5.558;2022-11-11T00:52:27;9.60;99.90
7738;DHT22;29398;45.328;5.558;2022-11-11T00:53:47;9.60;99.90
7738;DHT22;29398;45.328;5.558;2022-11-11T00:55:07;9.60;99.90
7738;DHT22;29398;45.328;5.558;2022-11-11T00:56:27;9.60;99.90
7738;DHT22;29398;45.328;5.558;2022-11-11T00:57:48;9.70;99.90
7738;DHT22;29398;45.328;5.558;2022-11-11T00:59:08;9.70;99.90
7738;DHT22;29398;45.328;5.558;2022-11-11T01:00:30;9.70;99.90
7738;DHT22;29398;45.328;5.558;2022-11-11T01:01:49;9.70;99.90
7738;DHT22;29398;45.328;5.558;2022-11-11T01:03:10;9.70;99.90
7738;DHT22;29398;45.328;5.558;2022-11-11T01:04:29;9.80;99.90
7738;DHT22;29398;45.328;5.558;2022-11-11T01:05:49;9.80;99.90
7738;DHT22;29398;45.328;5.558;2022-11-11T01:07:11;9.80;99.90
7738;DHT22;29398;45.328;5.558;2022-11-11T01:08:32;9.70;99.90
7738;DHT22;29398;45.328;5.558;2022-11-11T01:09:52;9.80;99.90
7738;DHT22;29398;45.328;5.558;2022-11-11T01:11:14;9.80;99.90
7738;DHT22;29398;45.328;5.558;2022-11-11T01:12:35;9.80;99.90
7738;DHT22;29398;45.328;5.558;2022-11-11T01:13:54;9.90;99.90
7738;DHT22;29398;45.328;5.558;2022-11-11T01:15:15;9.90;99.90
7738;DHT22;29398;45.328;5.558;2022-11-11T01:16:36;10.00;99.90
7738;DHT22;29398;45.328;5.558;2022-11-11T01:17:57;9.90;99.90
7738;DHT22;29398;45.328;5.558;2022-11-11T01:19:16;10.00;99.90
7738;DHT22;29398;45.328;5.558;2022-11-11T01:20:37;10.00;99.90
7738;DHT22;29398;45.328;5.558;2022-11-11T01:21:57;10.00;99.90
7738;DHT22;29398;45.328;5.558;2022-11-11T01:23:17;10.00;99.90
7738;DHT22;29398;45.328;5.558;2022-11-11T01:24:37;10.00;99.90
7738;DHT22;29398;45.328;5.558;2022-11-11T01:26:01;10.00;99.90
7738;DHT22;29398;45.328;5.558;2022-11-11T01:27:21;10.10;99.90
7738;DHT22;29398;45.328;5.558;2022-11-11T01:28:42;10.00;99.90
7738;DHT22;29398;45.328;5.558;2022-11-11T01:30:03;10.10;99.90
7738;DHT22;29398;45.328;5.558;2022-11-11T01:31:24;10.10;99.90
7738;DHT22;29398;45.328;5.558;2022-11-11T01:32:46;10.10;99.90
7738;DHT22;29398;45.328;5.558;2022-11-11T01:34:06;10.10;99.90
7738;DHT22;29398;45.328;5.558;2022-11-11T01:35:27;10.10;99.90
7738;DHT22;29398;45.328;5.558;2022-11-11T01:36:47;10.20;99.90
7738;DHT22;29398;45.328;5.558;2022-11-11T01:38:08;10.20;99.90
7738;DHT22;29398;45.328;5.558;2022-11-11T01:39:29;10.20;99.90
7738;DHT22;29398;45.328;5.558;2022-11-11T01:40:49;10.20;99.90
7738;DHT22;29398;45.328;5.558;2022-11-11T01:42:09;10.20;99.90
7738;DHT22;29398;45.328;5.558;2022-11-11T01:43:28;10.20;99.90
7738;DHT22;29398;45.328;5.558;2022-11-11T01:44:49;10.20;99.90
7738;DHT22;29398;45.328;5.558;2022-11-11T01:46:17;10.20;99.90
7738;DHT22;29398;45.328;5.558;2022-11-11T01:47:40;10.20;99.90
7738;DHT22;29398;45.328;5.558;2022-11-11T01:49:30;10.20;99.90
7738;DHT22;29398;45.328;5.558;2022-11-11T01:50:54;10.20;99.90
7738;DHT22;29398;45.328;5.558;2022-11-11T01:52:18;10.20;99.90
7738;DHT22;29398;45.328;5.558;2022-11-11T01:53:39;10.20;99.90
7738;DHT22;29398;45.328;5.558;2022-11-11T01:55:03;10.20;99.90
7738;DHT22;29398;45.328;5.558;2022-11-11T01:56:25;10.20;99.90
7738;DHT22;29398;45.328;5.558;2022-11-11T01:57:47;10.20;99.90
7738;DHT22;29398;45.328;5.558;2022-11-11T01:59:11;10.20;99.90
7738;DHT22;29398;45.328;5.558;2022-11-11T02:00:31;10.20;99.90
7738;DHT22;29398;45.328;5.558;2022-11-11T02:01:52;10.20;99.90
7738;DHT22;29398;45.328;5.558;2022-11-11T02:03:13;10.10;99.90
7738;DHT22;29398;45.328;5.558;2022-11-11T02:04:36;10.10;99.90
7738;DHT22;29398;45.328;5.558;2022-11-11T02:06:14;10.10;99.90
7738;DHT22;29398;45.328;5.558;2022-11-11T02:07:35;10.10;99.90
7738;DHT22;29398;45.328;5.558;2022-11-11T02:08:56;10.00;99.90
7738;DHT22;29398;45.328;5.558;2022-11-11T02:10:17;10.00;99.90
7738;DHT22;29398;45.328;5.558;2022-11-11T02:11:41;10.00;99.90
7738;DHT22;29398;45.328;5.558;2022-11-11T02:13:20;9.90;99.90
7738;DHT22;29398;45.328;5.558;2022-11-11T02:15:00;9.90;99.90
7738;DHT22;29398;45.328;5.558;2022-11-11T02:16:21;9.90;99.90
7738;DHT22;29398;45.328;5.558;2022-11-11T02:17:41;9.90;99.90
7738;DHT22;29398;45.328;5.558;2022-11-11T02:19:01;10.00;99.90
7738;DHT22;29398;45.328;5.558;2022-11-11T02:20:25;10.00;99.90
7738;DHT22;29398;45.328;5.558;2022-11-11T02:21:51;10.00;99.90
7738;DHT22;29398;45.328;5.558;2022-11-11T02:23:18;10.00;99.90
7738;DHT22;29398;45.328;5.558;2022-11-11T02:24:43;10.10;99.90
7738;DHT22;29398;45.328;5.558;2022-11-11T02:26:04;10.00;99.90
7738;DHT22;29398;45.328;5.558;2022-11-11T02:27:28;10.00;99.90
7738;DHT22;29398;45.328;5.558;2022-11-11T02:28:49;10.10;99.90
7738;DHT22;29398;45.328;5.558;2022-11-11T02:30:11;10.10;99.90
7738;DHT22;29398;45.328;5.558;2022-11-11T02:31:34;10.10;99.90
7738;DHT22;29398;45.328;5.558;2022-11-11T02:32:54;10.10;99.90
7738;DHT22;29398;45.328;5.558;2022-11-11T02:34:14;10.10;99.90
7738;DHT22;29398;45.328;5.558;2022-11-11T02:35:36;10.10;99.90
7738;DHT22;29398;45.328;5.558;2022-11-11T02:36:57;10.10;99.90
7738;DHT22;29398;45.328;5.558;2022-11-11T02:38:17;10.10;99.90
7738;DHT22;29398;45.328;5.558;2022-11-11T02:39:39;10.10;99.90
7738;DHT22;29398;45.328;5.558;2022-11-11T02:41:01;10.10;99.90
7738;DHT22;29398;45.328;5.558;2022-11-11T02:42:40;10.10;99.90
7738;DHT22;29398;45.328;5.558;2022-11-11T02:44:00;10.10;99.90
7738;DHT22;29398;45.328;5.558;2022-11-11T02:45:20;10.10;99.90
7738;DHT22;29398;45.328;5.558;2022-11-11T02:46:40;10.10;99.90
7738;DHT22;29398;45.328;5.558;2022-11-11T02:48:00;10.10;99.90
7738;DHT22;29398;45.328;5.558;2022-11-11T02:49:20;10.10;99.90
7738;DHT22;29398;45.328;5.558;2022-11-11T02:50:40;10.10;99.90
7738;DHT22;29398;45.328;5.558;2022-11-11T02:52:00;10.10;99.90
7738;DHT22;29398;45.328;5.558;2022-11-11T02:53:20;10.00;99.90
7738;DHT22;29398;45.328;5.558;2022-11-11T02:54:41;10.00;99.90
7738;DHT22;29398;45.328;5.558;2022-11-11T02:56:03;10.10;99.90
7738;DHT22;29398;45.328;5.558;2022-11-11T02:57:25;10.00;99.90
7738;DHT22;29398;45.328;5.558;2022-11-11T02:58:44;10.00;99.90
7738;DHT22;29398;45.328;5.558;2022-11-11T03:00:06;10.00;99.90
7738;DHT22;29398;45.328;5.558;2022-11-11T03:01:25;10.00;99.90
7738;DHT22;29398;45.328;5.558;2022-11-11T03:02:46;10.00;99.90
7738;DHT22;29398;45.328;5.558;2022-11-11T03:04:06;10.00;99.90
7738;DHT22;29398;45.328;5.558;2022-11-11T03:05:26;10.00;99.90
7738;DHT22;29398;45.328;5.558;2022-11-11T03:06:46;10.00;99.90
7738;DHT22;29398;45.328;5.558;2022-11-11T03:08:06;10.00;99.90
7738;DHT22;29398;45.328;5.558;2022-11-11T03:09:26;9.90;99.90
7738;DHT22;29398;45.328;5.558;2022-11-11T03:10:46;10.00;99.90
7738;DHT22;29398;45.328;5.558;2022-11-11T03:12:08;10.00;99.90
7738;DHT22;29398;45.328;5.558;2022-11-11T03:13:29;10.00;99.90
7738;DHT22;29398;45.328;5.558;2022-11-11T03:14:48;10.00;99.90
7738;DHT22;29398;45.328;5.558;2022-11-11T03:16:09;10.00;99.90
7738;DHT22;29398;45.328;5.558;2022-11-11T03:17:48;10.00;99.90
7738;DHT22;29398;45.328;5.558;2022-11-11T03:19:08;10.00;99.90
7738;DHT22;29398;45.328;5.558;2022-11-11T03:20:28;10.00;99.90
7738;DHT22;29398;45.328;5.558;2022-11-11T03:22:07;10.00;99.90
7738;DHT22;29398;45.328;5.558;2022-11-11T03:23:30;10.00;99.90
7738;DHT22;29398;45.328;5.558;2022-11-11T03:24:49;10.00;99.90
7738;DHT22;29398;45.328;5.558;2022-11-11T03:26:28;10.00;99.90
7738;DHT22;29398;45.328;5.558;2022-11-11T03:27:49;10.00;99.90
7738;DHT22;29398;45.328;5.558;2022-11-11T03:29:09;10.10;99.90
7738;DHT22;29398;45.328;5.558;2022-11-11T03:30:30;10.10;99.90
7738;DHT22;29398;45.328;5.558;2022-11-11T03:31:49;10.10;99.90
7738;DHT22;29398;45.328;5.558;2022-11-11T03:33:13;10.10;99.90
7738;DHT22;29398;45.328;5.558;2022-11-11T03:34:34;10.10;99.90
7738;DHT22;29398;45.328;5.558;2022-11-11T03:35:54;10.20;99.90
7738;DHT22;29398;45.328;5.558;2022-11-11T03:37:14;10.10;99.90
7738;DHT22;29398;45.328;5.558;2022-11-11T03:38:53;10.10;99.90
7738;DHT22;29398;45.328;5.558;2022-11-11T03:40:13;10.20;99.90
7738;DHT22;29398;45.328;5.558;2022-11-11T03:41:32;10.20;99.90
7738;DHT22;29398;45.328;5.558;2022-11-11T03:42:55;10.20;99.90
7738;DHT22;29398;45.328;5.558;2022-11-11T03:44:14;10.10;99.90
7738;DHT22;29398;45.328;5.558;2022-11-11T03:45:35;10.10;99.90
7738;DHT22;29398;45.328;5.558;2022-11-11T03:46:54;10.00;99.90
7738;DHT22;29398;45.328;5.558;2022-11-11T03:48:15;10.00;99.90
7738;DHT22;29398;45.328;5.558;2022-11-11T03:49:35;10.00;99.90
7738;DHT22;29398;45.328;5.558;2022-11-11T03:50:55;9.90;99.90
7738;DHT22;29398;45.328;5.558;2022-11-11T03:52:16;10.00;99.90
7738;DHT22;29398;45.328;5.558;2022-11-11T03:53:36;10.00;99.90
7738;DHT22;29398;45.328;5.558;2022-11-11T03:54:56;10.00;99.90
7738;DHT22;29398;45.328;5.558;2022-11-11T03:56:16;10.00;99.90
7738;DHT22;29398;45.328;5.558;2022-11-11T03:57:39;10.00;99.90
7738;DHT22;29398;45.328;5.558;2022-11-11T03:59:01;10.00;99.90
7738;DHT22;29398;45.328;5.558;2022-11-11T04:00:25;10.00;99.90
7738;DHT22;29398;45.328;5.558;2022-11-11T04:01:45;10.10;99.90
7738;DHT22;29398;45.328;5.558;2022-11-11T04:03:23;10.10;99.90
7738;DHT22;29398;45.328;5.558;2022-11-11T04:05:05;10.10;99.90
7738;DHT22;29398;45.328;5.558;2022-11-11T04:08:24;10.20;99.90
7738;DHT22;29398;45.328;5.558;2022-11-11T04:10:02;10.20;99.90
7738;DHT22;29398;45.328;5.558;2022-11-11T04:11:45;10.20;99.90
7738;DHT22;29398;45.328;5.558;2022-11-11T04:13:07;10.20;99.90
7738;DHT22;29398;45.328;5.558;2022-11-11T04:14:47;10.20;99.90
7738;DHT22;29398;45.328;5.558;2022-11-11T04:16:25;10.20;99.90
7738;DHT22;29398;45.328;5.558;2022-11-11T04:17:45;10.30;99.90
7738;DHT22;29398;45.328;5.558;2022-11-11T04:19:05;10.30;99.90
7738;DHT22;29398;45.328;5.558;2022-11-11T04:20:43;10.30;99.90
7738;DHT22;29398;45.328;5.558;2022-11-11T04:22:38;10.20;99.90
7738;DHT22;29398;45.328;5.558;2022-11-11T04:23:59;10.20;99.90
7738;DHT22;29398;45.328;5.558;2022-11-11T04:25:18;10.20;99.90
7738;DHT22;29398;45.328;5.558;2022-11-11T04:26:58;10.20;99.90
7738;DHT22;29398;45.328;5.558;2022-11-11T04:28:18;11.80;99.90
7738;DHT22;29398;45.328;5.558;2022-11-11T04:29:58;10.10;99.90
7738;DHT22;29398;45.328;5.558;2022-11-11T04:31:19;10.10;99.90
7738;DHT22;29398;45.328;5.558;2022-11-11T04:32:39;10.10;99.90
7738;DHT22;29398;45.328;5.558;2022-11-11T04:33:58;10.00;99.90
7738;DHT22;29398;45.328;5.558;2022-11-11T04:35:18;10.00;99.90
7738;DHT22;29398;45.328;5.558;2022-11-11T04:36:38;10.00;99.90
7738;DHT22;29398;45.328;5.558;2022-11-11T04:37:58;10.00;99.90
7738;DHT22;29398;45.328;5.558;2022-11-11T04:39:33;9.90;99.90
7738;DHT22;29398;45.328;5.558;2022-11-11T04:41:11;9.90;99.90
7738;DHT22;29398;45.328;5.558;2022-11-11T04:42:32;9.90;99.90
7738;DHT22;29398;45.328;5.558;2022-11-11T04:43:52;9.90;99.90
7738;DHT22;29398;45.328;5.558;2022-11-11T04:45:31;9.90;99.90
7738;DHT22;29398;45.328;5.558;2022-11-11T04:46:54;9.90;99.90
7738;DHT22;29398;45.328;5.558;2022-11-11T04:48:13;9.90;99.90
7738;DHT22;29398;45.328;5.558;2022-11-11T04:49:35;9.90;99.90
7738;DHT22;29398;45.328;5.558;2022-11-11T04:50:54;9.90;99.90
7738;DHT22;29398;45.328;5.558;2022-11-11T04:52:15;9.90;99.90
7738;DHT22;29398;45.328;5.558;2022-11-11T04:53:47;9.90;99.90
7738;DHT22;29398;45.328;5.558;2022-11-11T04:55:07;9.80;99.90
7738;DHT22;29398;45.328;5.558;2022-11-11T04:56:45;9.80;99.90
7738;DHT22;29398;45.328;5.558;2022-11-11T04:58:09;9.80;99.90
7738;DHT22;29398;45.328;5.558;2022-11-11T04:59:30;9.80;99.90
7738;DHT22;29398;45.328;5.558;2022-11-11T05:00:51;9.80;99.90
7738;DHT22;29398;45.328;5.558;2022-11-11T05:02:11;9.70;99.90
7738;DHT22;29398;45.328;5.558;2022-11-11T05:03:50;9.80;99.90
7738;DHT22;29398;45.328;5.558;2022-11-11T05:05:09;9.80;99.90
7738;DHT22;29398;45.328;5.558;2022-11-11T05:06:30;9.80;99.90
7738;DHT22;29398;45.328;5.558;2022-11-11T05:08:08;9.80;99.90
7738;DHT22;29398;45.328;5.558;2022-11-11T05:09:46;9.80;99.90
7738;DHT22;29398;45.328;5.558;2022-11-11T05:11:06;9.80;99.90
7738;DHT22;29398;45.328;5.558;2022-11-11T05:12:27;9.80;99.90
7738;DHT22;29398;45.328;5.558;2022-11-11T05:13:46;9.80;99.90
7738;DHT22;29398;45.328;5.558;2022-11-11T05:15:25;9.80;99.90
7738;DHT22;29398;45.328;5.558;2022-11-11T05:17:05;9.80;99.90
7738;DHT22;29398;45.328;5.558;2022-11-11T05:18:43;9.80;99.90
7738;DHT22;29398;45.328;5.558;2022-11-11T05:20:21;9.80;99.90
7738;DHT22;29398;45.328;5.558;2022-11-11T05:22:07;9.80;99.90
7738;DHT22;29398;45.328;5.558;2022-11-11T05:23:28;9.80;99.90
7738;DHT22;29398;45.328;5.558;2022-11-11T05:25:03;9.80;99.90
7738;DHT22;29398;45.328;5.558;2022-11-11T05:26:42;9.70;99.90
7738;DHT22;29398;45.328;5.558;2022-11-11T05:28:03;9.70;99.90
7738;DHT22;29398;45.328;5.558;2022-11-11T05:29:22;9.70;99.90
7738;DHT22;29398;45.328;5.558;2022-11-11T05:30:43;9.70;99.90
7738;DHT22;29398;45.328;5.558;2022-11-11T05:32:06;9.70;99.90
7738;DHT22;29398;45.328;5.558;2022-11-11T05:33:26;9.70;99.90
7738;DHT22;29398;45.328;5.558;2022-11-11T05:34:47;9.80;99.90
7738;DHT22;29398;45.328;5.558;2022-11-11T05:36:07;9.80;99.90
7738;DHT22;29398;45.328;5.558;2022-11-11T05:37:28;9.80;99.90
7738;DHT22;29398;45.328;5.558;2022-11-11T05:38:48;9.80;99.90
7738;DHT22;29398;45.328;5.558;2022-11-11T05:40:09;9.80;99.90
7738;DHT22;29398;45.328;5.558;2022-11-11T05:41:30;9.80;99.90
7738;DHT22;29398;45.328;5.558;2022-11-11T05:42:50;9.80;99.90
7738;DHT22;29398;45.328;5.558;2022-11-11T05:44:11;9.80;99.90
7738;DHT22;29398;45.328;5.558;2022-11-11T05:45:30;9.80;99.90
7738;DHT22;29398;45.328;5.558;2022-11-11T05:46:51;9.80;99.90
7738;DHT22;29398;45.328;5.558;2022-11-11T05:48:12;9.80;99.90
7738;DHT22;29398;45.328;5.558;2022-11-11T05:49:32;9.70;99.90
7738;DHT22;29398;45.328;5.558;2022-11-11T05:50:52;9.70;99.90
7738;DHT22;29398;45.328;5.558;2022-11-11T05:52:14;9.70;99.90
7738;DHT22;29398;45.328;5.558;2022-11-11T05:53:35;9.70;99.90
7738;DHT22;29398;45.328;5.558;2022-11-11T05:54:54;9.70;99.90
7738;DHT22;29398;45.328;5.558;2022-11-11T05:56:15;9.70;99.90
7738;DHT22;29398;45.328;5.558;2022-11-11T05:57:34;9.70;99.90
7738;DHT22;29398;45.328;5.558;2022-11-11T05:58:55;9.70;99.90
7738;DHT22;29398;45.328;5.558;2022-11-11T06:00:16;9.70;99.90
7738;DHT22;29398;45.328;5.558;2022-11-11T06:01:36;9.70;99.90
7738;DHT22;29398;45.328;5.558;2022-11-11T06:03:01;9.70;99.90
7738;DHT22;29398;45.328;5.558;2022-11-11T06:04:23;9.70;99.90
7738;DHT22;29398;45.328;5.558;2022-11-11T06:05:44;9.70;99.90
7738;DHT22;29398;45.328;5.558;2022-11-11T06:07:04;9.70;99.90
7738;DHT22;29398;45.328;5.558;2022-11-11T06:08:25;9.70;99.90
7738;DHT22;29398;45.328;5.558;2022-11-11T06:09:45;12.90;99.90
7738;DHT22;29398;45.328;5.558;2022-11-11T06:11:06;9.70;99.90
7738;DHT22;29398;45.328;5.558;2022-11-11T06:12:26;9.70;99.90
7738;DHT22;29398;45.328;5.558;2022-11-11T06:14:07;9.70;99.90
7738;DHT22;29398;45.328;5.558;2022-11-11T06:15:27;9.70;99.90
7738;DHT22;29398;45.328;5.558;2022-11-11T06:16:47;9.70;99.90
7738;DHT22;29398;45.328;5.558;2022-11-11T06:18:08;9.60;99.90
7738;DHT22;29398;45.328;5.558;2022-11-11T06:19:30;9.70;99.90
7738;DHT22;29398;45.328;5.558;2022-11-11T06:20:52;9.60;99.90
7738;DHT22;29398;45.328;5.558;2022-11-11T06:22:12;9.60;99.90
7738;DHT22;29398;45.328;5.558;2022-11-11T06:23:53;6.60;99.90
7738;DHT22;29398;45.328;5.558;2022-11-11T06:25:13;9.60;99.90
7738;DHT22;29398;45.328;5.558;2022-11-11T06:26:53;9.70;99.90
7738;DHT22;29398;45.328;5.558;2022-11-11T06:28:14;9.70;99.90
7738;DHT22;29398;45.328;5.558;2022-11-11T06:29:34;9.70;99.90
7738;DHT22;29398;45.328;5.558;2022-11-11T06:30:55;9.70;99.90
7738;DHT22;29398;45.328;5.558;2022-11-11T06:32:14;9.70;99.90
7738;DHT22;29398;45.328;5.558;2022-11-11T06:33:35;9.70;99.90
7738;DHT22;29398;45.328;5.558;2022-11-11T06:34:56;9.70;99.90
7738;DHT22;29398;45.328;5.558;2022-11-11T06:36:19;9.70;99.90
7738;DHT22;29398;45.328;5.558;2022-11-11T06:37:40;9.70;99.90
7738;DHT22;29398;45.328;5.558;2022-11-11T06:38:59;9.70;99.90
7738;DHT22;29398;45.328;5.558;2022-11-11T06:40:20;9.70;99.90
7738;DHT22;29398;45.328;5.558;2022-11-11T06:41:39;9.70;99.90
7738;DHT22;29398;45.328;5.558;2022-11-11T06:42:59;9.60;99.90
7738;DHT22;29398;45.328;5.558;2022-11-11T06:44:20;9.60;99.90
7738;DHT22;29398;45.328;5.558;2022-11-11T06:45:40;9.60;99.90
7738;DHT22;29398;45.328;5.558;2022-11-11T06:48:22;9.60;99.90
7738;DHT22;29398;45.328;5.558;2022-11-11T06:49:43;9.60;99.90
7738;DHT22;29398;45.328;5.558;2022-11-11T06:51:05;9.70;99.90
7738;DHT22;29398;45.328;5.558;2022-11-11T06:52:26;9.60;99.90
7738;DHT22;29398;45.328;5.558;2022-11-11T06:53:45;9.70;99.90
7738;DHT22;29398;45.328;5.558;2022-11-11T06:55:06;9.70;99.90
7738;DHT22;29398;45.328;5.558;2022-11-11T06:56:27;9.70;99.90
7738;DHT22;29398;45.328;5.558;2022-11-11T06:57:47;9.70;99.90
7738;DHT22;29398;45.328;5.558;2022-11-11T06:59:07;9.70;99.90
7738;DHT22;29398;45.328;5.558;2022-11-11T07:00:28;9.70;99.90
7738;DHT22;29398;45.328;5.558;2022-11-11T07:01:49;9.70;99.90
7738;DHT22;29398;45.328;5.558;2022-11-11T07:03:11;9.70;99.90
7738;DHT22;29398;45.328;5.558;2022-11-11T07:04:31;9.70;99.90
7738;DHT22;29398;45.328;5.558;2022-11-11T07:05:52;9.70;99.90
7738;DHT22;29398;45.328;5.558;2022-11-11T07:07:14;9.70;99.90
7738;DHT22;29398;45.328;5.558;2022-11-11T07:08:35;9.70;99.90
7738;DHT22;29398;45.328;5.558;2022-11-11T07:09:56;9.70;99.90
7738;DHT22;29398;45.328;5.558;2022-11-11T07:11:16;9.70;99.90
7738;DHT22;29398;45.328;5.558;2022-11-11T07:12:39;9.70;99.90
7738;DHT22;29398;45.328;5.558;2022-11-11T07:13:59;9.70;99.90
7738;DHT22;29398;45.328;5.558;2022-11-11T07:15:19;9.70;99.90
7738;DHT22;29398;45.328;5.558;2022-11-11T07:16:38;9.80;99.90
7738;DHT22;29398;45.328;5.558;2022-11-11T07:17:59;9.80;99.90
7738;DHT22;29398;45.328;5.558;2022-11-11T07:19:19;9.80;99.90
7738;DHT22;29398;45.328;5.558;2022-11-11T07:20:40;9.80;99.90
7738;DHT22;29398;45.328;5.558;2022-11-11T07:22:01;9.80;99.90
7738;DHT22;29398;45.328;5.558;2022-11-11T07:23:23;9.90;99.90
7738;DHT22;29398;45.328;5.558;2022-11-11T07:24:44;9.90;99.90
7738;DHT22;29398;45.328;5.558;2022-11-11T07:26:04;9.90;99.90
7738;DHT22;29398;45.328;5.558;2022-11-11T07:27:25;9.90;99.90
7738;DHT22;29398;45.328;5.558;2022-11-11T07:28:45;9.90;99.90
7738;DHT22;29398;45.328;5.558;2022-11-11T07:30:07;10.00;99.90
7738;DHT22;29398;45.328;5.558;2022-11-11T07:31:28;10.00;99.90
7738;DHT22;29398;45.328;5.558;2022-11-11T07:32:50;10.10;99.90
7738;DHT22;29398;45.328;5.558;2022-11-11T07:34:11;10.10;99.90
7738;DHT22;29398;45.328;5.558;2022-11-11T07:35:31;10.10;99.90
7738;DHT22;29398;45.328;5.558;2022-11-11T07:36:52;10.10;99.90
7738;DHT22;29398;45.328;5.558;2022-11-11T07:38:11;11.50;99.90
7738;DHT22;29398;45.328;5.558;2022-11-11T07:39:33;10.20;99.90
7738;DHT22;29398;45.328;5.558;2022-11-11T07:40:54;10.20;99.90
7738;DHT22;29398;45.328;5.558;2022-11-11T07:42:14;10.20;99.90
7738;DHT22;29398;45.328;5.558;2022-11-11T07:43:33;10.30;99.90
7738;DHT22;29398;45.328;5.558;2022-11-11T07:44:54;10.30;99.90
7738;DHT22;29398;45.328;5.558;2022-11-11T07:46:14;10.30;99.90
7738;DHT22;29398;45.328;5.558;2022-11-11T07:47:35;10.30;99.90
7738;DHT22;29398;45.328;5.558;2022-11-11T07:48:56;10.30;99.90
7738;DHT22;29398;45.328;5.558;2022-11-11T07:50:16;10.30;99.90
7738;DHT22;29398;45.328;5.558;2022-11-11T07:51:37;10.30;99.90
7738;DHT22;29398;45.328;5.558;2022-11-11T07:52:57;10.40;99.90
7738;DHT22;29398;45.328;5.558;2022-11-11T07:54:18;10.40;99.90
7738;DHT22;29398;45.328;5.558;2022-11-11T07:55:40;10.40;99.90
7738;DHT22;29398;45.328;5.558;2022-11-11T07:57:00;10.50;99.90
7738;DHT22;29398;45.328;5.558;2022-11-11T07:58:21;10.50;99.90
7738;DHT22;29398;45.328;5.558;2022-11-11T07:59:42;10.50;99.90
7738;DHT22;29398;45.328;5.558;2022-11-11T08:01:03;10.50;99.90
7738;DHT22;29398;45.328;5.558;2022-11-11T08:02:23;10.50;99.90
7738;DHT22;29398;45.328;5.558;2022-11-11T08:03:44;10.60;99.90
7738;DHT22;29398;45.328;5.558;2022-11-11T08:05:10;10.60;99.90
7738;DHT22;29398;45.328;5.558;2022-11-11T08:06:30;10.60;99.90
7738;DHT22;29398;45.328;5.558;2022-11-11T08:07:50;10.60;99.90
7738;DHT22;29398;45.328;5.558;2022-11-11T08:09:11;10.70;99.90
7738;DHT22;29398;45.328;5.558;2022-11-11T08:10:31;10.70;99.90
7738;DHT22;29398;45.328;5.558;2022-11-11T08:11:54;10.70;99.90
7738;DHT22;29398;45.328;5.558;2022-11-11T08:13:32;10.70;99.90
7738;DHT22;29398;45.328;5.558;2022-11-11T08:15:02;10.70;99.90
7738;DHT22;29398;45.328;5.558;2022-11-11T08:16:23;10.80;99.90
7738;DHT22;29398;45.328;5.558;2022-11-11T08:17:43;10.80;99.90
7738;DHT22;29398;45.328;5.558;2022-11-11T08:19:04;10.80;99.90
7738;DHT22;29398;45.328;5.558;2022-11-11T08:20:24;10.80;99.90
7738;DHT22;29398;45.328;5.558;2022-11-11T08:21:45;10.90;99.90
7738;DHT22;29398;45.328;5.558;2022-11-11T08:23:05;10.90;99.90
7738;DHT22;29398;45.328;5.558;2022-11-11T08:24:28;10.90;99.90
7738;DHT22;29398;45.328;5.558;2022-11-11T08:25:49;11.00;99.90
7738;DHT22;29398;45.328;5.558;2022-11-11T08:27:10;10.90;99.90
7738;DHT22;29398;45.328;5.558;2022-11-11T08:28:32;11.00;99.90
7738;DHT22;29398;45.328;5.558;2022-11-11T08:29:54;11.00;99.90
7738;DHT22;29398;45.328;5.558;2022-11-11T08:31:15;11.00;99.90
7738;DHT22;29398;45.328;5.558;2022-11-11T08:32:35;11.00;99.90
7738;DHT22;29398;45.328;5.558;2022-11-11T08:33:56;11.10;99.90
7738;DHT22;29398;45.328;5.558;2022-11-11T08:35:16;11.10;99.90
7738;DHT22;29398;45.328;5.558;2022-11-11T08:36:37;11.00;99.90
7738;DHT22;29398;45.328;5.558;2022-11-11T08:38:00;11.00;99.90
7738;DHT22;29398;45.328;5.558;2022-11-11T08:39:20;11.10;99.90
7738;DHT22;29398;45.328;5.558;2022-11-11T08:40:41;11.10;99.90
7738;DHT22;29398;45.328;5.558;2022-11-11T08:42:01;11.10;99.90
7738;DHT22;29398;45.328;5.558;2022-11-11T08:43:23;11.10;99.90
7738;DHT22;29398;45.328;5.558;2022-11-11T08:44:44;11.10;99.90
7738;DHT22;29398;45.328;5.558;2022-11-11T08:46:05;11.00;99.90
7738;DHT22;29398;45.328;5.558;2022-11-11T08:47:25;11.00;99.90
7738;DHT22;29398;45.328;5.558;2022-11-11T08:48:46;11.00;99.90
7738;DHT22;29398;45.328;5.558;2022-11-11T08:50:07;11.00;99.90
7738;DHT22;29398;45.328;5.558;2022-11-11T08:51:28;11.00;99.90
7738;DHT22;29398;45.328;5.558;2022-11-11T08:52:50;10.90;99.90
7738;DHT22;29398;45.328;5.558;2022-11-11T08:54:11;10.90;99.90
7738;DHT22;29398;45.328;5.558;2022-11-11T08:55:33;10.90;99.90
7738;DHT22;29398;45.328;5.558;2022-11-11T08:56:55;11.00;99.90
7738;DHT22;29398;45.328;5.558;2022-11-11T08:58:15;11.10;99.90
7738;DHT22;29398;45.328;5.558;2022-11-11T08:59:37;11.20;99.90
7738;DHT22;29398;45.328;5.558;2022-11-11T09:00:58;11.20;99.90
7738;DHT22;29398;45.328;5.558;2022-11-11T09:02:19;11.30;99.90